sensor_id;sensor_type;location;lat;lon;timestamp;P1;durP1;ratioP1;P2;durP2;ratioP2
9124;SDS011;4597;48.730;9.114;2023-03-01T00:01:49;14.23;;;10.97;;
9124;SDS011;4597;48.730;9.114;2023-03-01T00:04:15;16.37;;;10.87;;
9124;SDS011;4597;48.730;9.114;2023-03-01T00:06:42;14.07;;;9.73;;
9124;SDS011;4597;48.730;9.114;2023-03-01T00:09:10;15.90;;;10.70;;
9124;SDS011;4597;48.730;9.114;2023-03-01T00:11:37;12.43;;;9.30;;
9124;SDS011;4597;48.730;9.114;2023-03-01T00:14:02;12.97;;;9.93;;
9124;SDS011;4597;48.730;9.114;2023-03-01T00:16:32;13.00;;;9.70;;
9124;SDS011;4597;48.730;9.114;2023-03-01T00:19:00;14.17;;;10.00;;
9124;SDS011;4597;48.730;9.114;2023-03-01T00:21:26;14.10;;;10.30;;
9124;SDS011;4597;48.730;9.114;2023-03-01T00:23:52;15.07;;;10.83;;
9124;SDS011;4597;48.730;9.114;2023-03-01T00:26:19;13.40;;;9.67;;
9124;SDS011;4597;48.730;9.114;2023-03-01T00:28:46;13.10;;;10.23;;
9124;SDS011;4597;48.730;9.114;2023-03-01T00:31:16;13.33;;;10.40;;
9124;SDS011;4597;48.730;9.114;2023-03-01T00:33:44;12.67;;;9.60;;
9124;SDS011;4597;48.730;9.114;2023-03-01T00:36:11;12.67;;;9.47;;
9124;SDS011;4597;48.730;9.114;2023-03-01T00:38:39;13.53;;;9.83;;
9124;SDS011;4597;48.730;9.114;2023-03-01T00:41:06;14.13;;;9.43;;
9124;SDS011;4597;48.730;9.114;2023-03-01T00:43:34;12.77;;;9.67;;
9124;SDS011;4597;48.730;9.114;2023-03-01T00:46:02;14.40;;;10.10;;
9124;SDS011;4597;48.730;9.114;2023-03-01T00:48:28;13.93;;;9.83;;
9124;SDS011;4597;48.730;9.114;2023-03-01T00:50:54;12.87;;;9.33;;
9124;SDS011;4597;48.730;9.114;2023-03-01T00:53:19;12.03;;;9.13;;
9124;SDS011;4597;48.730;9.114;2023-03-01T00:55:45;14.13;;;9.63;;
9124;SDS011;4597;48.730;9.114;2023-03-01T00:58:10;11.00;;;9.33;;
9124;SDS011;4597;48.730;9.114;2023-03-01T01:00:36;14.73;;;10.63;;
9124;SDS011;4597;48.730;9.114;2023-03-01T01:03:01;13.27;;;10.13;;
9124;SDS011;4597;48.730;9.114;2023-03-01T01:05:27;12.50;;;10.03;;
9124;SDS011;4597;48.730;9.114;2023-03-01T01:07:52;12.47;;;9.63;;
9124;SDS011;4597;48.730;9.114;2023-03-01T01:10:18;12.43;;;10.00;;
9124;SDS011;4597;48.730;9.114;2023-03-01T01:12:44;13.97;;;9.87;;
9124;SDS011;4597;48.730;9.114;2023-03-01T01:15:10;15.37;;;10.13;;
9124;SDS011;4597;48.730;9.114;2023-03-01T01:17:38;14.37;;;10.53;;
9124;SDS011;4597;48.730;9.114;2023-03-01T01:20:04;15.97;;;11.20;;
9124;SDS011;4597;48.730;9.114;2023-03-01T01:22:30;13.83;;;10.43;;
9124;SDS011;4597;48.730;9.114;2023-03-01T01:24:55;14.83;;;10.80;;
9124;SDS011;4597;48.730;9.114;2023-03-01T01:27:21;14.60;;;10.83;;
9124;SDS011;4597;48.730;9.114;2023-03-01T01:29:47;15.43;;;10.63;;
9124;SDS011;4597;48.730;9.114;2023-03-01T01:32:12;15.07;;;10.60;;
9124;SDS011;4597;48.730;9.114;2023-03-01T01:34:38;13.77;;;10.33;;
9124;SDS011;4597;48.730;9.114;2023-03-01T01:37:03;15.30;;;10.90;;
9124;SDS011;4597;48.730;9.114;2023-03-01T01:39:32;14.73;;;10.53;;
9124;SDS011;4597;48.730;9.114;2023-03-01T01:41:59;15.10;;;11.27;;
9124;SDS011;4597;48.730;9.114;2023-03-01T01:44:26;13.57;;;11.00;;
9124;SDS011;4597;48.730;9.114;2023-03-01T01:46:55;14.67;;;11.03;;
9124;SDS011;4597;48.730;9.114;2023-03-01T01:49:34;15.30;;;11.33;;
9124;SDS011;4597;48.730;9.114;2023-03-01T01:52:20;12.90;;;10.10;;
9124;SDS011;4597;48.730;9.114;2023-03-01T01:55:04;13.17;;;10.03;;
9124;SDS011;4597;48.730;9.114;2023-03-01T01:57:34;14.00;;;9.90;;
9124;SDS011;4597;48.730;9.114;2023-03-01T02:00:26;13.60;;;9.83;;
9124;SDS011;4597;48.730;9.114;2023-03-01T02:02:52;15.20;;;10.77;;
9124;SDS011;4597;48.730;9.114;2023-03-01T02:05:26;16.47;;;11.20;;
9124;SDS011;4597;48.730;9.114;2023-03-01T02:08:10;15.60;;;11.27;;
9124;SDS011;4597;48.730;9.114;2023-03-01T02:10:37;15.83;;;11.30;;
9124;SDS011;4597;48.730;9.114;2023-03-01T02:13:03;15.53;;;11.30;;
9124;SDS011;4597;48.730;9.114;2023-03-01T02:15:31;14.57;;;11.33;;
9124;SDS011;4597;48.730;9.114;2023-03-01T02:18:01;15.50;;;10.83;;
9124;SDS011;4597;48.730;9.114;2023-03-01T02:20:44;14.57;;;11.23;;
9124;SDS011;4597;48.730;9.114;2023-03-01T02:23:33;15.33;;;10.50;;
9124;SDS011;4597;48.730;9.114;2023-03-01T02:26:10;17.17;;;11.53;;
9124;SDS011;4597;48.730;9.114;2023-03-01T02:28:43;17.13;;;11.67;;
9124;SDS011;4597;48.730;9.114;2023-03-01T02:31:10;18.00;;;12.27;;
9124;SDS011;4597;48.730;9.114;2023-03-01T02:33:57;16.77;;;11.17;;
9124;SDS011;4597;48.730;9.114;2023-03-01T02:36:24;18.93;;;12.87;;
9124;SDS011;4597;48.730;9.114;2023-03-01T02:38:57;16.10;;;11.50;;
9124;SDS011;4597;48.730;9.114;2023-03-01T02:41:25;16.53;;;11.90;;
9124;SDS011;4597;48.730;9.114;2023-03-01T02:43:53;14.40;;;11.60;;
9124;SDS011;4597;48.730;9.114;2023-03-01T02:46:21;16.17;;;11.17;;
9124;SDS011;4597;48.730;9.114;2023-03-01T02:48:50;14.00;;;11.07;;
9124;SDS011;4597;48.730;9.114;2023-03-01T02:57:02;15.87;;;10.53;;
9124;SDS011;4597;48.730;9.114;2023-03-01T02:59:29;14.80;;;11.13;;
9124;SDS011;4597;48.730;9.114;2023-03-01T03:01:56;15.43;;;10.80;;
9124;SDS011;4597;48.730;9.114;2023-03-01T03:04:22;15.90;;;11.07;;
9124;SDS011;4597;48.730;9.114;2023-03-01T03:06:48;15.57;;;11.00;;
9124;SDS011;4597;48.730;9.114;2023-03-01T03:09:15;15.90;;;11.30;;
9124;SDS011;4597;48.730;9.114;2023-03-01T03:11:41;16.90;;;10.93;;
9124;SDS011;4597;48.730;9.114;2023-03-01T03:14:10;16.60;;;11.73;;
9124;SDS011;4597;48.730;9.114;2023-03-01T03:16:40;16.90;;;10.90;;
9124;SDS011;4597;48.730;9.114;2023-03-01T03:19:07;15.97;;;10.90;;
9124;SDS011;4597;48.730;9.114;2023-03-01T03:21:33;15.63;;;11.13;;
9124;SDS011;4597;48.730;9.114;2023-03-01T03:23:59;17.23;;;10.67;;
9124;SDS011;4597;48.730;9.114;2023-03-01T03:26:24;16.53;;;11.27;;
9124;SDS011;4597;48.730;9.114;2023-03-01T03:28:50;22.07;;;12.23;;
9124;SDS011;4597;48.730;9.114;2023-03-01T03:31:16;17.87;;;11.90;;
9124;SDS011;4597;48.730;9.114;2023-03-01T03:33:41;17.00;;;12.13;;
9124;SDS011;4597;48.730;9.114;2023-03-01T03:36:07;17.63;;;12.27;;
9124;SDS011;4597;48.730;9.114;2023-03-01T03:38:37;14.93;;;12.20;;
9124;SDS011;4597;48.730;9.114;2023-03-01T03:41:05;16.83;;;11.87;;
9124;SDS011;4597;48.730;9.114;2023-03-01T03:43:33;16.60;;;12.13;;
9124;SDS011;4597;48.730;9.114;2023-03-01T03:46:01;18.23;;;11.83;;
9124;SDS011;4597;48.730;9.114;2023-03-01T03:48:32;16.77;;;12.10;;
9124;SDS011;4597;48.730;9.114;2023-03-01T03:50:59;19.53;;;12.00;;
9124;SDS011;4597;48.730;9.114;2023-03-01T03:53:25;17.00;;;12.13;;
9124;SDS011;4597;48.730;9.114;2023-03-01T03:55:52;18.20;;;11.93;;
9124;SDS011;4597;48.730;9.114;2023-03-01T03:58:19;17.77;;;12.33;;
9124;SDS011;4597;48.730;9.114;2023-03-01T04:00:47;18.57;;;11.93;;
9124;SDS011;4597;48.730;9.114;2023-03-01T04:03:15;20.60;;;12.30;;
9124;SDS011;4597;48.730;9.114;2023-03-01T04:05:42;17.00;;;11.47;;
9124;SDS011;4597;48.730;9.114;2023-03-01T04:08:08;18.07;;;12.00;;
9124;SDS011;4597;48.730;9.114;2023-03-01T04:10:38;15.93;;;12.60;;
9124;SDS011;4597;48.730;9.114;2023-03-01T04:13:12;17.83;;;12.33;;
9124;SDS011;4597;48.730;9.114;2023-03-01T04:15:39;15.57;;;11.47;;
9124;SDS011;4597;48.730;9.114;2023-03-01T04:18:05;15.73;;;11.70;;
9124;SDS011;4597;48.730;9.114;2023-03-01T04:20:32;17.30;;;12.43;;
9124;SDS011;4597;48.730;9.114;2023-03-01T04:25:38;16.13;;;11.10;;
9124;SDS011;4597;48.730;9.114;2023-03-01T04:28:05;15.77;;;11.47;;
9124;SDS011;4597;48.730;9.114;2023-03-01T04:30:31;17.17;;;11.87;;
9124;SDS011;4597;48.730;9.114;2023-03-01T04:33:00;16.30;;;12.17;;
9124;SDS011;4597;48.730;9.114;2023-03-01T04:35:34;15.93;;;11.80;;
9124;SDS011;4597;48.730;9.114;2023-03-01T04:38:00;16.30;;;11.77;;
9124;SDS011;4597;48.730;9.114;2023-03-01T04:40:25;18.73;;;12.83;;
9124;SDS011;4597;48.730;9.114;2023-03-01T04:42:51;18.07;;;12.60;;
9124;SDS011;4597;48.730;9.114;2023-03-01T04:45:17;13.83;;;11.33;;
9124;SDS011;4597;48.730;9.114;2023-03-01T04:47:43;18.80;;;12.27;;
9124;SDS011;4597;48.730;9.114;2023-03-01T04:50:12;17.60;;;11.70;;
9124;SDS011;4597;48.730;9.114;2023-03-01T04:52:39;15.63;;;11.03;;
9124;SDS011;4597;48.730;9.114;2023-03-01T04:55:05;17.27;;;11.70;;
9124;SDS011;4597;48.730;9.114;2023-03-01T04:57:31;17.00;;;11.47;;
9124;SDS011;4597;48.730;9.114;2023-03-01T04:59:57;16.93;;;12.10;;
9124;SDS011;4597;48.730;9.114;2023-03-01T05:02:22;16.83;;;12.03;;
9124;SDS011;4597;48.730;9.114;2023-03-01T05:04:48;15.57;;;11.53;;
9124;SDS011;4597;48.730;9.114;2023-03-01T05:07:13;15.77;;;11.50;;
9124;SDS011;4597;48.730;9.114;2023-03-01T05:09:44;15.93;;;10.93;;
9124;SDS011;4597;48.730;9.114;2023-03-01T05:12:13;17.03;;;12.10;;
9124;SDS011;4597;48.730;9.114;2023-03-01T05:14:39;15.00;;;11.40;;
9124;SDS011;4597;48.730;9.114;2023-03-01T05:17:06;15.63;;;10.73;;
9124;SDS011;4597;48.730;9.114;2023-03-01T05:19:32;16.70;;;11.40;;
9124;SDS011;4597;48.730;9.114;2023-03-01T05:21:57;15.70;;;12.00;;
9124;SDS011;4597;48.730;9.114;2023-03-01T05:24:26;16.03;;;10.63;;
9124;SDS011;4597;48.730;9.114;2023-03-01T05:26:53;15.47;;;11.40;;
9124;SDS011;4597;48.730;9.114;2023-03-01T05:29:22;16.50;;;12.37;;
9124;SDS011;4597;48.730;9.114;2023-03-01T05:31:55;15.20;;;11.40;;
9124;SDS011;4597;48.730;9.114;2023-03-01T05:34:30;15.70;;;11.93;;
9124;SDS011;4597;48.730;9.114;2023-03-01T05:36:57;16.40;;;11.70;;
9124;SDS011;4597;48.730;9.114;2023-03-01T05:39:24;16.80;;;12.00;;
9124;SDS011;4597;48.730;9.114;2023-03-01T05:41:52;17.60;;;12.10;;
9124;SDS011;4597;48.730;9.114;2023-03-01T05:44:24;15.50;;;11.67;;
9124;SDS011;4597;48.730;9.114;2023-03-01T05:46:51;17.43;;;11.93;;
9124;SDS011;4597;48.730;9.114;2023-03-01T05:49:17;17.03;;;12.10;;
9124;SDS011;4597;48.730;9.114;2023-03-01T05:51:43;15.37;;;11.87;;
9124;SDS011;4597;48.730;9.114;2023-03-01T05:54:12;15.93;;;11.60;;
9124;SDS011;4597;48.730;9.114;2023-03-01T05:56:38;16.57;;;12.03;;
9124;SDS011;4597;48.730;9.114;2023-03-01T05:59:04;15.80;;;11.30;;
9124;SDS011;4597;48.730;9.114;2023-03-01T06:01:30;15.57;;;11.27;;
9124;SDS011;4597;48.730;9.114;2023-03-01T06:03:56;18.73;;;12.80;;
9124;SDS011;4597;48.730;9.114;2023-03-01T06:06:22;17.07;;;13.10;;
9124;SDS011;4597;48.730;9.114;2023-03-01T06:08:48;20.20;;;13.27;;
9124;SDS011;4597;48.730;9.114;2023-03-01T06:11:14;21.33;;;12.57;;
9124;SDS011;4597;48.730;9.114;2023-03-01T06:13:41;17.97;;;12.83;;
9124;SDS011;4597;48.730;9.114;2023-03-01T06:16:07;19.53;;;13.40;;
9124;SDS011;4597;48.730;9.114;2023-03-01T06:18:33;20.40;;;14.07;;
9124;SDS011;4597;48.730;9.114;2023-03-01T06:20:59;19.53;;;14.30;;
9124;SDS011;4597;48.730;9.114;2023-03-01T06:23:24;23.90;;;15.60;;
9124;SDS011;4597;48.730;9.114;2023-03-01T06:25:50;22.70;;;15.57;;
9124;SDS011;4597;48.730;9.114;2023-03-01T06:28:16;23.13;;;16.17;;
9124;SDS011;4597;48.730;9.114;2023-03-01T06:30:42;27.13;;;17.83;;
9124;SDS011;4597;48.730;9.114;2023-03-01T06:33:07;30.23;;;17.07;;
9124;SDS011;4597;48.730;9.114;2023-03-01T06:35:33;24.63;;;14.83;;
9124;SDS011;4597;48.730;9.114;2023-03-01T06:37:59;22.17;;;15.17;;
9124;SDS011;4597;48.730;9.114;2023-03-01T06:40:26;27.47;;;16.57;;
9124;SDS011;4597;48.730;9.114;2023-03-01T06:42:52;20.40;;;13.93;;
9124;SDS011;4597;48.730;9.114;2023-03-01T06:45:18;19.63;;;14.30;;
9124;SDS011;4597;48.730;9.114;2023-03-01T06:47:44;21.13;;;13.93;;
9124;SDS011;4597;48.730;9.114;2023-03-01T06:50:10;22.23;;;14.77;;
9124;SDS011;4597;48.730;9.114;2023-03-01T06:52:37;23.00;;;15.27;;
9124;SDS011;4597;48.730;9.114;2023-03-01T06:55:03;23.20;;;14.70;;
9124;SDS011;4597;48.730;9.114;2023-03-01T06:57:29;19.33;;;13.80;;
9124;SDS011;4597;48.730;9.114;2023-03-01T06:59:55;18.67;;;13.63;;
9124;SDS011;4597;48.730;9.114;2023-03-01T07:02:20;19.57;;;14.37;;
9124;SDS011;4597;48.730;9.114;2023-03-01T07:04:46;18.17;;;13.37;;
9124;SDS011;4597;48.730;9.114;2023-03-01T07:07:13;16.53;;;12.57;;
9124;SDS011;4597;48.730;9.114;2023-03-01T07:09:38;20.23;;;13.70;;
9124;SDS011;4597;48.730;9.114;2023-03-01T07:12:04;19.67;;;13.37;;
9124;SDS011;4597;48.730;9.114;2023-03-01T07:14:30;18.20;;;12.43;;
9124;SDS011;4597;48.730;9.114;2023-03-01T07:16:55;20.30;;;13.17;;
9124;SDS011;4597;48.730;9.114;2023-03-01T07:19:21;20.73;;;13.27;;
9124;SDS011;4597;48.730;9.114;2023-03-01T07:21:47;20.07;;;13.27;;
9124;SDS011;4597;48.730;9.114;2023-03-01T07:24:13;17.90;;;12.80;;
9124;SDS011;4597;48.730;9.114;2023-03-01T07:26:38;17.93;;;13.47;;
9124;SDS011;4597;48.730;9.114;2023-03-01T07:29:05;18.43;;;13.43;;
9124;SDS011;4597;48.730;9.114;2023-03-01T07:31:32;21.30;;;13.30;;
9124;SDS011;4597;48.730;9.114;2023-03-01T07:33:57;20.57;;;13.40;;
9124;SDS011;4597;48.730;9.114;2023-03-01T07:36:24;20.03;;;13.70;;
9124;SDS011;4597;48.730;9.114;2023-03-01T07:38:49;18.67;;;13.37;;
9124;SDS011;4597;48.730;9.114;2023-03-01T07:41:15;18.10;;;13.37;;
9124;SDS011;4597;48.730;9.114;2023-03-01T07:43:41;19.47;;;13.70;;
9124;SDS011;4597;48.730;9.114;2023-03-01T07:46:07;15.57;;;12.37;;
9124;SDS011;4597;48.730;9.114;2023-03-01T07:48:33;19.07;;;13.63;;
9124;SDS011;4597;48.730;9.114;2023-03-01T07:50:59;21.33;;;14.30;;
9124;SDS011;4597;48.730;9.114;2023-03-01T07:53:25;17.77;;;12.87;;
9124;SDS011;4597;48.730;9.114;2023-03-01T07:56:08;19.80;;;13.63;;
9124;SDS011;4597;48.730;9.114;2023-03-01T07:58:36;21.30;;;14.00;;
9124;SDS011;4597;48.730;9.114;2023-03-01T08:01:07;22.60;;;14.47;;
9124;SDS011;4597;48.730;9.114;2023-03-01T08:03:37;18.03;;;13.40;;
9124;SDS011;4597;48.730;9.114;2023-03-01T08:06:04;19.30;;;13.57;;
9124;SDS011;4597;48.730;9.114;2023-03-01T08:08:31;23.50;;;14.37;;
9124;SDS011;4597;48.730;9.114;2023-03-01T08:10:57;22.30;;;15.03;;
9124;SDS011;4597;48.730;9.114;2023-03-01T08:13:24;21.63;;;14.70;;
9124;SDS011;4597;48.730;9.114;2023-03-01T08:15:50;19.27;;;14.20;;
9124;SDS011;4597;48.730;9.114;2023-03-01T08:18:19;18.80;;;13.37;;
9124;SDS011;4597;48.730;9.114;2023-03-01T08:20:45;19.77;;;13.53;;
9124;SDS011;4597;48.730;9.114;2023-03-01T08:23:11;19.10;;;13.37;;
9124;SDS011;4597;48.730;9.114;2023-03-01T08:25:37;20.50;;;13.47;;
9124;SDS011;4597;48.730;9.114;2023-03-01T08:28:03;21.83;;;14.73;;
9124;SDS011;4597;48.730;9.114;2023-03-01T08:30:29;20.50;;;13.93;;
9124;SDS011;4597;48.730;9.114;2023-03-01T08:32:54;19.77;;;13.77;;
9124;SDS011;4597;48.730;9.114;2023-03-01T08:35:21;20.77;;;14.63;;
9124;SDS011;4597;48.730;9.114;2023-03-01T08:37:47;21.60;;;13.80;;
9124;SDS011;4597;48.730;9.114;2023-03-01T08:40:13;21.53;;;14.30;;
9124;SDS011;4597;48.730;9.114;2023-03-01T08:42:40;18.30;;;13.50;;
9124;SDS011;4597;48.730;9.114;2023-03-01T08:45:07;19.63;;;14.00;;
9124;SDS011;4597;48.730;9.114;2023-03-01T08:47:34;18.13;;;14.20;;
9124;SDS011;4597;48.730;9.114;2023-03-01T08:50:00;21.93;;;14.20;;
9124;SDS011;4597;48.730;9.114;2023-03-01T08:52:25;22.47;;;13.80;;
9124;SDS011;4597;48.730;9.114;2023-03-01T08:54:51;21.50;;;14.77;;
9124;SDS011;4597;48.730;9.114;2023-03-01T08:57:17;20.53;;;13.67;;
9124;SDS011;4597;48.730;9.114;2023-03-01T08:59:43;19.57;;;13.97;;
9124;SDS011;4597;48.730;9.114;2023-03-01T09:02:10;20.57;;;14.30;;
9124;SDS011;4597;48.730;9.114;2023-03-01T09:04:38;20.27;;;13.73;;
9124;SDS011;4597;48.730;9.114;2023-03-01T09:07:04;22.80;;;14.10;;
9124;SDS011;4597;48.730;9.114;2023-03-01T09:09:29;21.57;;;14.70;;
9124;SDS011;4597;48.730;9.114;2023-03-01T09:11:55;20.17;;;14.30;;
9124;SDS011;4597;48.730;9.114;2023-03-01T09:14:20;21.90;;;14.57;;
9124;SDS011;4597;48.730;9.114;2023-03-01T09:16:46;20.27;;;14.70;;
9124;SDS011;4597;48.730;9.114;2023-03-01T09:19:12;21.17;;;14.80;;
9124;SDS011;4597;48.730;9.114;2023-03-01T09:21:38;23.10;;;14.10;;
9124;SDS011;4597;48.730;9.114;2023-03-01T09:24:03;22.73;;;14.40;;
9124;SDS011;4597;48.730;9.114;2023-03-01T09:26:29;23.57;;;15.30;;
9124;SDS011;4597;48.730;9.114;2023-03-01T09:28:55;20.63;;;14.87;;
9124;SDS011;4597;48.730;9.114;2023-03-01T09:31:22;22.33;;;14.97;;
9124;SDS011;4597;48.730;9.114;2023-03-01T09:33:49;22.93;;;15.37;;
9124;SDS011;4597;48.730;9.114;2023-03-01T09:36:18;21.60;;;14.87;;
9124;SDS011;4597;48.730;9.114;2023-03-01T09:38:46;20.03;;;14.20;;
9124;SDS011;4597;48.730;9.114;2023-03-01T09:41:22;20.77;;;15.30;;
9124;SDS011;4597;48.730;9.114;2023-03-01T09:44:00;20.43;;;14.43;;
9124;SDS011;4597;48.730;9.114;2023-03-01T09:46:44;18.47;;;13.87;;
9124;SDS011;4597;48.730;9.114;2023-03-01T09:49:12;18.43;;;14.40;;
9124;SDS011;4597;48.730;9.114;2023-03-01T09:51:42;19.77;;;14.73;;
9124;SDS011;4597;48.730;9.114;2023-03-01T09:54:12;20.30;;;14.33;;
9124;SDS011;4597;48.730;9.114;2023-03-01T09:56:42;20.70;;;14.43;;
9124;SDS011;4597;48.730;9.114;2023-03-01T09:59:19;18.20;;;14.17;;
9124;SDS011;4597;48.730;9.114;2023-03-01T10:01:59;19.87;;;13.67;;
9124;SDS011;4597;48.730;9.114;2023-03-01T10:04:47;19.60;;;14.87;;
9124;SDS011;4597;48.730;9.114;2023-03-01T10:07:32;22.17;;;14.70;;
9124;SDS011;4597;48.730;9.114;2023-03-01T10:10:40;23.50;;;14.93;;
9124;SDS011;4597;48.730;9.114;2023-03-01T10:15:54;19.67;;;15.20;;
9124;SDS011;4597;48.730;9.114;2023-03-01T10:18:30;18.77;;;14.03;;
9124;SDS011;4597;48.730;9.114;2023-03-01T10:20:59;20.73;;;14.03;;
9124;SDS011;4597;48.730;9.114;2023-03-01T10:23:27;20.13;;;14.90;;
9124;SDS011;4597;48.730;9.114;2023-03-01T10:28:35;20.93;;;14.50;;
9124;SDS011;4597;48.730;9.114;2023-03-01T10:31:24;19.17;;;14.40;;
9124;SDS011;4597;48.730;9.114;2023-03-01T10:34:01;20.33;;;14.07;;
9124;SDS011;4597;48.730;9.114;2023-03-01T10:36:37;20.67;;;13.83;;
9124;SDS011;4597;48.730;9.114;2023-03-01T10:39:10;20.60;;;15.03;;
9124;SDS011;4597;48.730;9.114;2023-03-01T10:41:44;17.63;;;12.87;;
9124;SDS011;4597;48.730;9.114;2023-03-01T10:44:38;21.63;;;14.57;;
9124;SDS011;4597;48.730;9.114;2023-03-01T10:50:22;19.07;;;14.67;;
9124;SDS011;4597;48.730;9.114;2023-03-01T10:52:59;19.70;;;14.73;;
9124;SDS011;4597;48.730;9.114;2023-03-01T10:55:34;20.00;;;13.47;;
9124;SDS011;4597;48.730;9.114;2023-03-01T11:03:17;19.03;;;14.17;;
9124;SDS011;4597;48.730;9.114;2023-03-01T11:06:29;18.20;;;14.07;;
9124;SDS011;4597;48.730;9.114;2023-03-01T11:08:36;20.60;;;14.37;;
9124;SDS011;4597;48.730;9.114;2023-03-01T11:17:04;19.50;;;13.73;;
9124;SDS011;4597;48.730;9.114;2023-03-01T11:19:36;17.73;;;14.00;;
9124;SDS011;4597;48.730;9.114;2023-03-01T11:25:00;17.47;;;14.60;;
9124;SDS011;4597;48.730;9.114;2023-03-01T11:27:35;20.27;;;14.50;;
9124;SDS011;4597;48.730;9.114;2023-03-01T11:30:05;19.17;;;14.00;;
9124;SDS011;4597;48.730;9.114;2023-03-01T11:32:35;17.93;;;14.33;;
9124;SDS011;4597;48.730;9.114;2023-03-01T11:35:14;17.30;;;14.23;;
9124;SDS011;4597;48.730;9.114;2023-03-01T11:45:40;19.77;;;14.77;;
9124;SDS011;4597;48.730;9.114;2023-03-01T11:48:33;19.07;;;14.47;;
9124;SDS011;4597;48.730;9.114;2023-03-01T11:51:13;20.03;;;14.23;;
9124;SDS011;4597;48.730;9.114;2023-03-01T12:05:51;17.33;;;13.83;;
9124;SDS011;4597;48.730;9.114;2023-03-01T12:08:43;16.63;;;13.53;;
9124;SDS011;4597;48.730;9.114;2023-03-01T12:25:05;17.97;;;13.77;;
9124;SDS011;4597;48.730;9.114;2023-03-01T12:36:09;19.70;;;15.13;;
9124;SDS011;4597;48.730;9.114;2023-03-01T12:41:27;17.43;;;14.47;;
9124;SDS011;4597;48.730;9.114;2023-03-01T12:46:42;20.70;;;16.10;;
9124;SDS011;4597;48.730;9.114;2023-03-01T12:49:13;19.17;;;14.73;;
9124;SDS011;4597;48.730;9.114;2023-03-01T12:51:42;17.97;;;14.63;;
9124;SDS011;4597;48.730;9.114;2023-03-01T12:54:20;17.60;;;14.83;;
9124;SDS011;4597;48.730;9.114;2023-03-01T12:56:53;18.13;;;14.57;;
9124;SDS011;4597;48.730;9.114;2023-03-01T13:02:05;19.40;;;14.20;;
9124;SDS011;4597;48.730;9.114;2023-03-01T13:07:36;16.73;;;13.93;;
9124;SDS011;4597;48.730;9.114;2023-03-01T13:10:11;19.37;;;14.77;;
9124;SDS011;4597;48.730;9.114;2023-03-01T13:18:27;19.00;;;14.40;;
9124;SDS011;4597;48.730;9.114;2023-03-01T13:20:56;18.13;;;14.37;;
9124;SDS011;4597;48.730;9.114;2023-03-01T13:33:50;18.20;;;15.67;;
9124;SDS011;4597;48.730;9.114;2023-03-01T13:41:47;16.97;;;14.97;;
9124;SDS011;4597;48.730;9.114;2023-03-01T13:44:12;18.60;;;15.00;;
9124;SDS011;4597;48.730;9.114;2023-03-01T13:46:38;16.70;;;14.90;;
9124;SDS011;4597;48.730;9.114;2023-03-01T13:49:04;17.63;;;14.33;;
9124;SDS011;4597;48.730;9.114;2023-03-01T13:51:30;20.33;;;16.53;;
9124;SDS011;4597;48.730;9.114;2023-03-01T13:53:56;19.27;;;15.17;;
9124;SDS011;4597;48.730;9.114;2023-03-01T13:56:27;20.57;;;15.47;;
9124;SDS011;4597;48.730;9.114;2023-03-01T13:58:58;19.17;;;14.90;;
9124;SDS011;4597;48.730;9.114;2023-03-01T14:01:28;17.70;;;14.63;;
9124;SDS011;4597;48.730;9.114;2023-03-01T14:03:55;17.17;;;14.20;;
9124;SDS011;4597;48.730;9.114;2023-03-01T14:06:23;18.10;;;14.97;;
9124;SDS011;4597;48.730;9.114;2023-03-01T14:09:01;17.57;;;14.93;;
9124;SDS011;4597;48.730;9.114;2023-03-01T14:17:01;18.53;;;15.13;;
9124;SDS011;4597;48.730;9.114;2023-03-01T14:19:36;19.30;;;15.13;;
9124;SDS011;4597;48.730;9.114;2023-03-01T14:24:44;16.73;;;13.83;;
9124;SDS011;4597;48.730;9.114;2023-03-01T14:27:12;18.00;;;14.30;;
9124;SDS011;4597;48.730;9.114;2023-03-01T14:29:39;16.53;;;14.37;;
9124;SDS011;4597;48.730;9.114;2023-03-01T14:32:12;18.53;;;15.00;;
9124;SDS011;4597;48.730;9.114;2023-03-01T14:34:46;17.33;;;15.13;;
9124;SDS011;4597;48.730;9.114;2023-03-01T14:37:33;18.53;;;13.97;;
9124;SDS011;4597;48.730;9.114;2023-03-01T14:40:00;15.53;;;13.87;;
9124;SDS011;4597;48.730;9.114;2023-03-01T14:42:28;18.43;;;14.50;;
9124;SDS011;4597;48.730;9.114;2023-03-01T14:44:59;17.87;;;15.20;;
9124;SDS011;4597;48.730;9.114;2023-03-01T14:47:27;15.83;;;13.60;;
9124;SDS011;4597;48.730;9.114;2023-03-01T14:49:57;15.83;;;14.23;;
9124;SDS011;4597;48.730;9.114;2023-03-01T14:52:26;15.43;;;13.73;;
9124;SDS011;4597;48.730;9.114;2023-03-01T14:54:59;16.40;;;14.63;;
9124;SDS011;4597;48.730;9.114;2023-03-01T14:57:28;17.17;;;14.70;;
9124;SDS011;4597;48.730;9.114;2023-03-01T15:00:03;16.53;;;14.53;;
9124;SDS011;4597;48.730;9.114;2023-03-01T15:02:31;16.33;;;14.33;;
9124;SDS011;4597;48.730;9.114;2023-03-01T15:05:00;17.00;;;14.67;;
9124;SDS011;4597;48.730;9.114;2023-03-01T15:07:33;17.20;;;14.53;;
9124;SDS011;4597;48.730;9.114;2023-03-01T15:10:04;17.73;;;14.27;;
9124;SDS011;4597;48.730;9.114;2023-03-01T15:14:56;16.90;;;14.07;;
9124;SDS011;4597;48.730;9.114;2023-03-01T15:17:26;15.87;;;14.17;;
9124;SDS011;4597;48.730;9.114;2023-03-01T15:19:59;18.50;;;13.97;;
9124;SDS011;4597;48.730;9.114;2023-03-01T15:22:27;15.83;;;14.23;;
9124;SDS011;4597;48.730;9.114;2023-03-01T15:24:53;17.70;;;14.20;;
9124;SDS011;4597;48.730;9.114;2023-03-01T15:27:21;15.97;;;14.30;;
9124;SDS011;4597;48.730;9.114;2023-03-01T15:29:49;15.87;;;14.00;;
9124;SDS011;4597;48.730;9.114;2023-03-01T15:32:25;16.57;;;13.63;;
9124;SDS011;4597;48.730;9.114;2023-03-01T15:34:59;15.83;;;14.23;;
9124;SDS011;4597;48.730;9.114;2023-03-01T15:37:46;15.50;;;13.97;;
9124;SDS011;4597;48.730;9.114;2023-03-01T15:40:21;16.97;;;14.10;;
9124;SDS011;4597;48.730;9.114;2023-03-01T15:42:56;16.57;;;13.83;;
9124;SDS011;4597;48.730;9.114;2023-03-01T15:45:31;16.37;;;14.67;;
9124;SDS011;4597;48.730;9.114;2023-03-01T15:48:04;15.37;;;13.47;;
9124;SDS011;4597;48.730;9.114;2023-03-01T15:50:40;17.00;;;14.40;;
9124;SDS011;4597;48.730;9.114;2023-03-01T15:53:06;16.87;;;13.93;;
9124;SDS011;4597;48.730;9.114;2023-03-01T15:55:39;17.60;;;14.33;;
9124;SDS011;4597;48.730;9.114;2023-03-01T15:58:08;16.97;;;13.83;;
9124;SDS011;4597;48.730;9.114;2023-03-01T16:00:37;16.20;;;14.40;;
9124;SDS011;4597;48.730;9.114;2023-03-01T16:03:03;18.10;;;15.23;;
9124;SDS011;4597;48.730;9.114;2023-03-01T16:05:31;15.80;;;14.20;;
9124;SDS011;4597;48.730;9.114;2023-03-01T16:07:57;14.90;;;13.37;;
9124;SDS011;4597;48.730;9.114;2023-03-01T16:10:23;15.70;;;13.97;;
9124;SDS011;4597;48.730;9.114;2023-03-01T16:12:49;15.87;;;14.13;;
9124;SDS011;4597;48.730;9.114;2023-03-01T16:15:21;16.63;;;14.87;;
9124;SDS011;4597;48.730;9.114;2023-03-01T16:17:54;18.53;;;14.77;;
9124;SDS011;4597;48.730;9.114;2023-03-01T16:20:21;15.70;;;13.73;;
9124;SDS011;4597;48.730;9.114;2023-03-01T16:22:47;16.70;;;14.37;;
9124;SDS011;4597;48.730;9.114;2023-03-01T16:25:15;20.23;;;14.73;;
9124;SDS011;4597;48.730;9.114;2023-03-01T16:27:42;16.70;;;14.47;;
9124;SDS011;4597;48.730;9.114;2023-03-01T16:30:09;17.10;;;14.60;;
9124;SDS011;4597;48.730;9.114;2023-03-01T16:32:38;16.57;;;13.43;;
9124;SDS011;4597;48.730;9.114;2023-03-01T16:35:05;15.20;;;13.53;;
9124;SDS011;4597;48.730;9.114;2023-03-01T16:37:32;19.30;;;14.00;;
9124;SDS011;4597;48.730;9.114;2023-03-01T16:39:58;15.20;;;13.60;;
9124;SDS011;4597;48.730;9.114;2023-03-01T16:42:24;17.10;;;13.70;;
9124;SDS011;4597;48.730;9.114;2023-03-01T16:44:56;18.27;;;14.30;;
9124;SDS011;4597;48.730;9.114;2023-03-01T16:47:22;16.33;;;14.17;;
9124;SDS011;4597;48.730;9.114;2023-03-01T16:49:51;16.70;;;13.83;;
9124;SDS011;4597;48.730;9.114;2023-03-01T16:52:16;15.87;;;14.10;;
9124;SDS011;4597;48.730;9.114;2023-03-01T16:54:42;20.40;;;13.93;;
9124;SDS011;4597;48.730;9.114;2023-03-01T16:57:07;16.50;;;13.80;;